createdAt,value
2023-05-10T00:02:02.834Z,60.59
2023-05-10T00:04:47.603Z,60.95
2023-05-10T00:07:32.754Z,61.33
2023-05-10T00:10:17.813Z,61.43
2023-05-10T00:13:02.736Z,61.85
2023-05-10T00:15:47.648Z,62.13
2023-05-10T00:18:32.675Z,62.08
2023-05-10T00:21:17.678Z,61.66
2023-05-10T00:24:02.512Z,61.17
2023-05-10T00:26:47.492Z,61.62
2023-05-10T00:29:32.469Z,61.43
2023-05-10T00:32:17.625Z,61.06
2023-05-10T00:35:02.469Z,61.02
2023-05-10T00:37:47.371Z,60.96
2023-05-10T00:40:32.343Z,61.56
2023-05-10T00:43:17.264Z,61.59
2023-05-10T00:46:02.298Z,62.39
2023-05-10T00:48:47.266Z,63.19
2023-05-10T00:51:32.180Z,62.55
2023-05-10T00:54:17.067Z,62.56
2023-05-10T00:57:02.060Z,62.64
2023-05-10T00:59:47.066Z,62.86
2023-05-10T01:02:31.938Z,62.56
2023-05-10T01:05:16.858Z,62.47
2023-05-10T01:08:01.788Z,61.75
2023-05-10T01:10:46.793Z,61.99
2023-05-10T01:13:31.770Z,62.46
2023-05-10T01:16:16.862Z,62.17
2023-05-10T01:19:01.788Z,62.51
2023-05-10T01:21:46.862Z,62.38
2023-05-10T01:24:31.893Z,62.06
2023-05-10T01:27:16.866Z,62.50
2023-05-10T01:30:14.808Z,62.18
2023-05-10T01:33:00.410Z,61.78
2023-05-10T01:35:45.420Z,62.11
2023-05-10T01:38:30.305Z,61.75
2023-05-10T01:41:15.304Z,62.02
2023-05-10T01:44:00.265Z,61.18
2023-05-10T01:46:45.119Z,61.87
2023-05-10T01:49:30.054Z,61.19
2023-05-10T01:52:15.027Z,61.59
2023-05-10T01:55:00.121Z,62.04
2023-05-10T01:57:45.098Z,61.67
2023-05-10T02:00:30.217Z,62.01
2023-05-10T02:03:15.296Z,61.55
2023-05-10T02:06:00.254Z,61.67
2023-05-10T02:08:45.255Z,61.60
2023-05-10T02:11:30.383Z,59.79
2023-05-10T02:14:15.212Z,60.14
2023-05-10T02:17:00.495Z,59.67
2023-05-10T02:19:45.630Z,59.08
2023-05-10T02:22:30.710Z,57.80
2023-05-10T02:25:15.877Z,58.90
2023-05-10T02:28:00.925Z,59.53
2023-05-10T02:30:46.083Z,59.97
2023-05-10T02:33:31.078Z,60.15
2023-05-10T02:36:16.173Z,60.89
2023-05-10T02:39:01.013Z,60.71
2023-05-10T02:41:45.962Z,61.28
2023-05-10T02:44:31.085Z,61.59
2023-05-10T02:47:16.210Z,60.74
2023-05-10T02:50:01.234Z,60.91
2023-05-10T02:52:46.102Z,60.37
2023-05-10T02:55:32.152Z,61.02
2023-05-10T02:58:16.984Z,60.96
2023-05-10T03:01:01.768Z,61.12
2023-05-10T03:03:46.884Z,61.92
2023-05-10T03:06:31.822Z,60.77
2023-05-10T03:09:16.762Z,59.14
2023-05-10T03:12:01.427Z,59.56
2023-05-10T03:14:46.494Z,61.22
2023-05-10T03:17:31.505Z,61.23
2023-05-10T03:20:16.722Z,60.98
2023-05-10T03:23:01.954Z,59.86
2023-05-10T03:25:46.576Z,60.37
2023-05-10T03:28:31.591Z,60.00
2023-05-10T03:31:16.499Z,59.35
2023-05-10T03:34:01.491Z,60.30
2023-05-10T03:36:46.473Z,59.37
2023-05-10T03:39:31.607Z,59.57
2023-05-10T03:42:16.563Z,59.06
2023-05-10T03:45:01.503Z,58.98
2023-05-10T03:47:46.719Z,58.88
2023-05-10T03:50:31.608Z,58.94
2023-05-10T03:53:16.935Z,58.66
2023-05-10T03:56:01.619Z,59.23
2023-05-10T03:58:46.697Z,58.79
2023-05-10T04:01:31.598Z,58.71
2023-05-10T04:04:16.837Z,58.22
2023-05-10T04:07:01.741Z,59.53
2023-05-10T04:09:46.745Z,60.15
2023-05-10T04:12:31.809Z,59.66
2023-05-10T04:15:16.929Z,58.78
2023-05-10T04:18:02.223Z,59.14
2023-05-10T04:20:47.045Z,58.98
2023-05-10T04:23:32.090Z,58.91
2023-05-10T04:26:17.246Z,58.84
2023-05-10T04:29:02.167Z,58.59
2023-05-10T04:31:47.072Z,59.66
2023-05-10T04:34:31.959Z,59.67
2023-05-10T04:37:16.892Z,59.52
2023-05-10T04:40:01.480Z,59.34
2023-05-10T04:42:46.080Z,59.48
2023-05-10T04:45:30.932Z,59.56
2023-05-10T04:48:15.588Z,60.30
2023-05-10T04:51:00.647Z,60.29
2023-05-10T04:53:54.146Z,60.73
2023-05-10T04:56:47.263Z,60.31
2023-05-10T05:02:17.082Z,60.86
2023-05-10T05:05:01.931Z,61.73
2023-05-10T05:07:47.095Z,61.90
2023-05-10T05:10:32.186Z,61.78
2023-05-10T05:13:16.871Z,61.89
2023-05-10T05:16:01.775Z,62.26
2023-05-10T05:18:46.606Z,62.09
2023-05-10T05:21:31.783Z,61.50
2023-05-10T05:24:16.702Z,61.75
2023-05-10T05:27:01.640Z,62.06
2023-05-10T05:29:46.520Z,61.79
2023-05-10T05:32:31.622Z,61.48
2023-05-10T05:35:16.671Z,61.88
2023-05-10T05:38:01.576Z,62.14
2023-05-10T05:40:46.577Z,62.06
2023-05-10T05:43:31.665Z,62.50
2023-05-10T05:46:16.780Z,62.59
2023-05-10T05:49:01.717Z,62.08
2023-05-10T05:51:46.655Z,62.27
2023-05-10T05:54:31.704Z,61.63
2023-05-10T05:57:16.690Z,61.90
2023-05-10T06:00:01.616Z,62.37
2023-05-10T06:02:46.690Z,61.17
2023-05-10T06:05:31.779Z,60.02
2023-05-10T06:08:16.614Z,60.29
2023-05-10T06:11:01.730Z,60.99
2023-05-10T06:13:46.709Z,62.01
2023-05-10T06:16:31.805Z,62.28
2023-05-10T06:19:16.544Z,62.09
2023-05-10T06:22:01.583Z,60.76
2023-05-10T06:24:46.717Z,60.66
2023-05-10T06:27:31.768Z,61.22
2023-05-10T06:30:16.907Z,60.24
2023-05-10T06:33:01.947Z,61.04
2023-05-10T06:35:46.908Z,61.00
2023-05-10T06:38:31.812Z,61.08
2023-05-10T06:41:16.868Z,60.16
2023-05-10T06:44:01.773Z,61.10
2023-05-10T06:46:46.749Z,61.80
2023-05-10T06:49:31.737Z,61.74
2023-05-10T06:52:16.660Z,62.11
2023-05-10T06:55:01.621Z,63.44
2023-05-10T06:57:46.354Z,62.12
2023-05-10T07:00:31.403Z,61.76
2023-05-10T07:03:16.407Z,61.49
2023-05-10T07:06:01.293Z,64.72
2023-05-10T07:08:46.343Z,63.84
2023-05-10T07:11:31.299Z,65.87
2023-05-10T07:14:16.283Z,66.18
2023-05-10T07:17:01.320Z,65.79
2023-05-10T07:19:46.365Z,64.25
2023-05-10T07:22:31.300Z,67.09
2023-05-10T07:25:16.439Z,66.46
2023-05-10T07:28:01.601Z,66.44
2023-05-10T07:30:46.443Z,67.15
2023-05-10T07:33:31.304Z,67.18
2023-05-10T07:36:16.300Z,66.98
2023-05-10T07:39:01.429Z,67.07
2023-05-10T07:41:46.538Z,66.10
2023-05-10T07:44:31.711Z,64.96
2023-05-10T07:47:16.953Z,67.04
2023-05-10T07:50:01.500Z,66.26
2023-05-10T07:52:46.095Z,66.61
2023-05-10T07:55:31.103Z,66.00
2023-05-10T07:58:15.852Z,64.70
2023-05-10T08:01:00.463Z,64.55
2023-05-10T08:03:52.982Z,63.99
2023-05-10T08:06:38.361Z,65.71
2023-05-10T08:09:23.442Z,64.67
2023-05-10T08:12:08.472Z,65.45
2023-05-10T08:14:53.360Z,66.71
2023-05-10T08:17:38.513Z,66.35
2023-05-10T08:20:23.465Z,66.24
2023-05-10T08:23:08.476Z,65.86
2023-05-10T08:25:53.432Z,64.38
2023-05-10T08:28:38.402Z,66.42
2023-05-10T08:31:23.327Z,65.65
2023-05-10T08:34:08.133Z,66.54
2023-05-10T08:36:52.789Z,66.10
2023-05-10T08:39:37.504Z,65.06
2023-05-10T08:42:22.221Z,63.66
2023-05-10T08:45:06.881Z,63.11
2023-05-10T08:47:51.613Z,62.91
2023-05-10T08:50:36.376Z,62.00
2023-05-10T08:53:21.493Z,62.96
2023-05-10T08:56:06.316Z,64.04
2023-05-10T08:58:51.055Z,65.69
2023-05-10T09:01:38.613Z,61.98
2023-05-10T09:04:24.472Z,62.19
2023-05-10T09:07:09.587Z,60.29
2023-05-10T09:09:54.667Z,60.62
2023-05-10T09:12:39.813Z,58.18
2023-05-10T09:15:24.742Z,60.17
2023-05-10T09:18:09.777Z,55.33
2023-05-10T09:20:54.810Z,57.24
2023-05-10T09:23:39.460Z,56.44
2023-05-10T09:26:24.519Z,57.27
2023-05-10T09:29:09.320Z,57.05
2023-05-10T09:31:54.227Z,56.86
2023-05-10T09:34:39.227Z,56.04
2023-05-10T09:37:24.098Z,55.83
2023-05-10T09:40:09.261Z,55.53
2023-05-10T09:42:53.962Z,56.13
2023-05-10T09:45:39.372Z,56.23
2023-05-10T09:48:24.397Z,56.07
2023-05-10T09:51:08.992Z,57.02
2023-05-10T09:53:53.958Z,55.55
2023-05-10T09:56:38.908Z,55.93
2023-05-10T09:59:23.695Z,54.89
2023-05-10T10:02:08.321Z,54.21
2023-05-10T10:04:53.558Z,53.54
2023-05-10T10:07:38.374Z,55.29
2023-05-10T10:10:23.625Z,55.79
2023-05-10T10:13:10.689Z,55.13
2023-05-10T10:15:55.405Z,52.34
2023-05-10T10:18:40.104Z,53.68
2023-05-10T10:21:24.911Z,54.18
2023-05-10T10:24:09.699Z,53.62
2023-05-10T10:26:54.407Z,50.98
2023-05-10T10:29:39.321Z,48.35
2023-05-10T10:32:24.070Z,47.85
2023-05-10T10:35:09.090Z,48.57
2023-05-10T10:37:53.813Z,49.79
2023-05-10T10:40:38.690Z,46.81
2023-05-10T10:43:23.763Z,44.96
2023-05-10T10:46:08.398Z,45.02
2023-05-10T10:48:53.426Z,44.86
2023-05-10T10:51:38.402Z,45.44
2023-05-10T10:54:23.109Z,45.52
2023-05-10T10:57:08.073Z,46.18
2023-05-10T10:59:52.904Z,45.62
2023-05-10T11:02:38.107Z,44.71
2023-05-10T11:05:22.844Z,44.57
2023-05-10T11:08:07.764Z,46.23
2023-05-10T11:10:52.652Z,46.83
2023-05-10T11:13:37.691Z,44.97
2023-05-10T11:16:22.335Z,44.89
2023-05-10T11:19:07.468Z,47.44
2023-05-10T11:21:52.333Z,47.78
2023-05-10T11:24:37.267Z,47.52
2023-05-10T11:27:22.335Z,48.16
2023-05-10T11:30:07.243Z,46.97
2023-05-10T11:32:52.106Z,46.96
2023-05-10T11:35:37.877Z,46.09
2023-05-10T11:38:22.885Z,45.92
2023-05-10T11:41:07.529Z,46.72
2023-05-10T11:43:52.604Z,45.41
2023-05-10T11:46:37.319Z,47.23
2023-05-10T11:49:22.235Z,46.36
2023-05-10T11:52:07.288Z,46.69
2023-05-10T11:54:52.325Z,46.54
2023-05-10T11:57:37.065Z,47.02
2023-05-10T12:00:21.815Z,46.79
2023-05-10T12:03:06.612Z,46.41
2023-05-10T12:05:51.681Z,47.18
2023-05-10T12:08:40.774Z,46.89
2023-05-10T12:11:25.867Z,45.44
2023-05-10T12:14:10.849Z,46.52
2023-05-10T12:16:56.136Z,44.91
2023-05-10T12:19:41.022Z,45.21
2023-05-10T12:22:25.758Z,44.61
2023-05-10T12:25:10.699Z,44.12
2023-05-10T12:27:55.541Z,45.55
2023-05-10T12:30:40.752Z,45.45
2023-05-10T12:33:25.670Z,46.38
2023-05-10T12:36:10.529Z,47.35
2023-05-10T12:38:55.415Z,45.26
2023-05-10T12:41:42.888Z,43.93
2023-05-10T12:44:28.687Z,44.31
2023-05-10T12:47:13.689Z,43.29
2023-05-10T12:49:58.600Z,43.44
2023-05-10T12:52:43.538Z,42.46
2023-05-10T12:55:28.387Z,43.29
2023-05-10T12:58:17.925Z,42.54
2023-05-10T13:01:12.415Z,43.67
2023-05-10T13:03:57.445Z,42.25
2023-05-10T13:06:42.115Z,41.94
2023-05-10T13:09:26.867Z,41.37
2023-05-10T13:12:11.948Z,41.84
2023-05-10T13:14:56.818Z,41.88
2023-05-10T13:17:41.723Z,40.05
2023-05-10T13:20:26.774Z,39.87
2023-05-10T13:23:11.751Z,40.62
2023-05-10T13:25:56.911Z,40.79
2023-05-10T13:28:42.009Z,40.94
2023-05-10T13:31:27.251Z,41.47
2023-05-10T13:34:12.219Z,40.47
2023-05-10T13:36:57.282Z,40.86
2023-05-10T13:39:43.328Z,40.46
2023-05-10T13:42:28.362Z,39.94
2023-05-10T13:45:13.427Z,39.61
2023-05-10T13:47:58.449Z,39.70
2023-05-10T13:50:43.155Z,39.42
2023-05-10T13:53:28.111Z,39.61
2023-05-10T13:56:12.871Z,39.15
2023-05-10T13:58:57.823Z,37.80
2023-05-10T14:01:42.411Z,37.20
2023-05-10T14:04:27.408Z,37.92
2023-05-10T14:07:12.353Z,37.60
2023-05-10T14:09:57.328Z,38.50
2023-05-10T14:12:42.332Z,36.83
2023-05-10T14:15:27.320Z,36.85
2023-05-10T14:18:12.266Z,37.30
2023-05-10T14:20:56.988Z,37.91
2023-05-10T14:23:41.979Z,36.74
2023-05-10T14:26:26.748Z,37.28
2023-05-10T14:29:12.688Z,37.71
2023-05-10T14:31:57.802Z,37.86
2023-05-10T14:34:42.641Z,38.47
2023-05-10T14:37:27.572Z,37.76
2023-05-10T14:40:12.772Z,37.71
2023-05-10T14:42:57.942Z,38.46
2023-05-10T14:45:42.923Z,37.78
2023-05-10T14:48:28.158Z,38.55
2023-05-10T14:51:13.124Z,39.43
2023-05-10T14:53:58.056Z,38.29
2023-05-10T14:56:42.947Z,38.48
2023-05-10T14:59:27.673Z,38.04
2023-05-10T15:02:13.083Z,39.25
2023-05-10T15:04:58.104Z,38.15
2023-05-10T15:07:43.019Z,37.74
2023-05-10T15:10:28.050Z,38.19
2023-05-10T15:13:12.808Z,38.70
2023-05-10T15:15:57.897Z,37.54
2023-05-10T15:18:42.704Z,38.69
2023-05-10T15:21:27.588Z,39.46
2023-05-10T15:24:12.567Z,39.09
2023-05-10T15:26:57.664Z,38.49
2023-05-10T15:29:42.540Z,38.57
2023-05-10T15:32:27.769Z,38.53
2023-05-10T15:35:12.528Z,38.94
2023-05-10T15:37:57.543Z,38.90
2023-05-10T15:40:42.455Z,39.44
2023-05-10T15:43:27.408Z,38.93
2023-05-10T15:46:12.480Z,38.34
2023-05-10T15:48:57.314Z,39.37
2023-05-10T15:51:42.315Z,39.35
2023-05-10T15:54:27.168Z,39.54
2023-05-10T15:57:12.347Z,40.24
2023-05-10T15:59:57.505Z,40.75
2023-05-10T16:02:42.837Z,41.81
2023-05-10T16:05:27.697Z,42.58
2023-05-10T16:08:14.916Z,42.88
2023-05-10T16:10:59.995Z,43.06
2023-05-10T16:13:44.971Z,43.73
2023-05-10T16:16:29.841Z,43.68
2023-05-10T16:19:14.825Z,43.83
2023-05-10T16:21:59.632Z,44.27
2023-05-10T16:24:44.684Z,43.52
2023-05-10T16:27:29.707Z,43.65
2023-05-10T16:30:14.485Z,43.66
2023-05-10T16:32:59.417Z,44.14
2023-05-10T16:35:44.392Z,44.11
2023-05-10T16:38:29.260Z,43.95
2023-05-10T16:41:14.296Z,43.51
2023-05-10T16:43:59.211Z,44.05
2023-05-10T16:46:44.650Z,44.44
2023-05-10T16:49:29.491Z,44.41
2023-05-10T16:52:14.415Z,44.61
2023-05-10T16:54:59.149Z,44.97
2023-05-10T16:57:44.231Z,43.54
2023-05-10T17:00:30.463Z,42.76
2023-05-10T17:03:15.432Z,42.54
2023-05-10T17:06:00.304Z,42.12
2023-05-10T17:08:45.234Z,41.80
2023-05-10T17:11:30.196Z,41.83
2023-05-10T17:14:18.160Z,41.71
2023-05-10T17:17:02.788Z,42.15
2023-05-10T17:19:48.011Z,41.88
2023-05-10T17:22:32.901Z,41.82
2023-05-10T17:25:17.842Z,42.03
2023-05-10T17:28:04.848Z,41.33
2023-05-10T17:30:49.705Z,41.85
2023-05-10T17:33:34.632Z,41.19
2023-05-10T17:36:19.269Z,41.89
2023-05-10T17:39:04.237Z,41.51
2023-05-10T17:41:49.124Z,42.03
2023-05-10T17:44:34.239Z,41.77
2023-05-10T17:47:18.956Z,41.38
2023-05-10T17:50:04.034Z,42.08
2023-05-10T17:52:48.834Z,41.92
2023-05-10T17:55:33.966Z,42.20
2023-05-10T17:58:18.778Z,41.92
2023-05-10T18:01:03.660Z,41.64
2023-05-10T18:03:48.410Z,41.85
2023-05-10T18:06:33.550Z,41.29
2023-05-10T18:09:18.212Z,41.33
2023-05-10T18:12:03.318Z,41.55
2023-05-10T18:14:47.867Z,42.25
2023-05-10T18:17:32.675Z,41.79
2023-05-10T18:23:35.818Z,41.75
2023-05-10T18:26:24.000Z,42.92
2023-05-10T18:29:09.020Z,42.67
2023-05-10T18:34:54.944Z,41.95
2023-05-10T18:37:40.340Z,42.55
2023-05-10T18:40:25.619Z,42.66
2023-05-10T18:43:10.474Z,43.56
2023-05-10T18:45:55.586Z,44.07
2023-05-10T18:48:40.297Z,43.36
2023-05-10T18:51:25.370Z,45.04
2023-05-10T18:54:10.345Z,46.19
2023-05-10T18:56:55.322Z,47.07
2023-05-10T18:59:40.265Z,47.65
2023-05-10T19:02:25.555Z,47.75
2023-05-10T19:05:10.674Z,47.72
2023-05-10T19:07:55.779Z,48.11
2023-05-10T19:10:40.815Z,48.95
2023-05-10T19:13:25.858Z,49.22
2023-05-10T19:16:11.277Z,49.99
2023-05-10T19:18:57.022Z,50.68
2023-05-10T19:21:41.909Z,50.75
2023-05-10T19:24:27.250Z,51.27
2023-05-10T19:27:12.472Z,51.39
2023-05-10T19:29:58.219Z,51.28
2023-05-10T19:32:43.133Z,51.92
2023-05-10T19:35:27.963Z,51.32
2023-05-10T19:38:12.803Z,51.75
2023-05-10T19:40:58.185Z,52.36
2023-05-10T19:43:43.249Z,52.25
2023-05-10T19:46:28.358Z,51.82
2023-05-10T19:49:13.749Z,52.72
2023-05-10T19:51:59.003Z,52.39
2023-05-10T19:54:44.175Z,52.03
2023-05-10T19:57:28.836Z,52.26
2023-05-10T20:00:13.582Z,51.69
2023-05-10T20:02:58.660Z,51.87
2023-05-10T20:05:43.724Z,52.06
2023-05-10T20:08:28.445Z,52.52
2023-05-10T20:11:13.543Z,53.26
2023-05-10T20:13:58.802Z,53.36
2023-05-10T20:16:43.534Z,53.03
2023-05-10T20:19:32.109Z,53.12
2023-05-10T20:22:17.154Z,53.52
2023-05-10T20:25:01.880Z,53.24
2023-05-10T20:27:46.604Z,52.93
2023-05-10T20:30:31.618Z,54.34
2023-05-10T20:33:16.804Z,53.81
2023-05-10T20:36:01.820Z,53.32
2023-05-10T20:38:46.887Z,54.01
2023-05-10T20:41:31.503Z,54.67
2023-05-10T20:44:16.440Z,53.13
2023-05-10T20:47:01.354Z,52.91
2023-05-10T20:49:46.197Z,52.51
2023-05-10T20:52:31.329Z,52.47
2023-05-10T20:55:16.268Z,53.31
2023-05-10T20:58:03.415Z,53.36
2023-05-10T21:00:49.898Z,53.25
2023-05-10T21:03:34.949Z,52.99
2023-05-10T21:06:19.998Z,52.86
2023-05-10T21:09:04.813Z,52.64
2023-05-10T21:11:49.921Z,53.45
2023-05-10T21:14:34.947Z,54.23
2023-05-10T21:17:20.338Z,54.06
2023-05-10T21:20:05.204Z,54.00
2023-05-10T21:22:50.266Z,54.07
2023-05-10T21:25:35.285Z,53.88
2023-05-10T21:28:20.325Z,53.16
2023-05-10T21:31:05.324Z,53.49
2023-05-10T21:33:50.443Z,53.53
2023-05-10T21:36:35.474Z,53.03
2023-05-10T21:39:20.478Z,53.05
2023-05-10T21:42:05.218Z,52.98
2023-05-10T21:44:50.214Z,53.42
2023-05-10T21:47:35.216Z,53.18
2023-05-10T21:50:20.435Z,53.53
2023-05-10T21:53:05.191Z,53.59
2023-05-10T21:55:50.048Z,53.46
2023-05-10T21:58:34.942Z,53.59
2023-05-10T22:01:19.848Z,53.99
2023-05-10T22:04:05.273Z,54.34
2023-05-10T22:06:51.895Z,54.74
2023-05-10T22:09:36.896Z,54.62
2023-05-10T22:12:21.862Z,54.80
2023-05-10T22:15:10.441Z,55.07
2023-05-10T22:17:56.068Z,55.08
2023-05-10T22:20:41.024Z,54.57
2023-05-10T22:23:25.921Z,54.70
2023-05-10T22:26:10.979Z,55.15
2023-05-10T22:28:55.896Z,55.16
2023-05-10T22:31:41.040Z,54.79
2023-05-10T22:34:26.295Z,54.64
2023-05-10T22:37:11.259Z,54.60
2023-05-10T22:39:56.277Z,54.70
2023-05-10T22:42:41.455Z,55.08
2023-05-10T22:45:26.415Z,54.77
2023-05-10T22:48:11.553Z,54.78
2023-05-10T22:50:56.571Z,54.60
2023-05-10T22:53:41.594Z,55.28
2023-05-10T22:56:26.720Z,55.19
2023-05-10T22:59:12.124Z,55.56
2023-05-10T23:01:57.165Z,55.21
2023-05-10T23:04:42.093Z,55.79
2023-05-10T23:07:27.159Z,55.66
2023-05-10T23:10:12.042Z,55.32
2023-05-10T23:12:56.953Z,55.31
2023-05-10T23:15:42.014Z,55.12
2023-05-10T23:18:27.025Z,54.85
2023-05-10T23:21:12.126Z,55.10
2023-05-10T23:23:57.098Z,54.86
2023-05-10T23:26:41.997Z,55.19
2023-05-10T23:29:26.992Z,54.75
2023-05-10T23:32:12.023Z,55.42
2023-05-10T23:34:56.959Z,55.41
2023-05-10T23:37:41.785Z,55.68
2023-05-10T23:40:26.845Z,54.43
2023-05-10T23:43:11.710Z,54.12
2023-05-10T23:45:56.635Z,54.01
2023-05-10T23:48:41.598Z,54.47
2023-05-10T23:51:26.575Z,54.05
2023-05-10T23:54:11.751Z,53.94
2023-05-10T23:56:56.651Z,54.71
2023-05-10T23:59:41.506Z,54.29
